Time;durP1;ratioP1;P1;durP2;ratioP2;P2;SDS_P1;SDS_P2;PMS_P1;PMS_P2;Temp;Humidity;BMP_temperature;BMP_pressure;BME280_temperature;BME280_humidity;BME280_pressure;Samples;Min_cycle;Max_cycle;Signal;HPM_P1;HPM_P2
2022/03/19 00:00:53;;;;;;;8.90;1.40;;;5.00;99.90;;;;;;5054294;28;20043;-85
2022/03/19 00:03:20;;;;;;;9.70;1.42;;;4.10;99.90;;;;;;5052036;28;20127;-85
2022/03/19 00:05:46;;;;;;;9.65;1.63;;;5.50;99.90;;;;;;5053794;28;20037;-85
2022/03/19 00:08:12;;;;;;;15.15;2.10;;;4.10;99.90;;;;;;5071466;28;20096;-84
2022/03/19 00:10:38;;;;;;;10.00;1.25;;;4.10;99.90;;;;;;5035444;28;20044;-84
2022/03/19 00:13:04;;;;;;;10.25;2.20;;;4.10;99.90;;;;;;5070215;28;20080;-85
2022/03/19 00:15:30;;;;;;;11.20;1.40;;;4.10;99.90;;;;;;5018422;28;20051;-84
2022/03/19 00:17:57;;;;;;;5.03;1.08;;;4.10;99.90;;;;;;5070136;28;20411;-85
2022/03/19 00:20:23;;;;;;;9.52;1.33;;;5.00;99.90;;;;;;5068102;28;20048;-85
2022/03/19 00:22:49;;;;;;;9.05;1.35;;;4.00;99.90;;;;;;5069773;28;20403;-84
2022/03/19 00:25:15;;;;;;;13.02;1.85;;;4.00;99.90;;;;;;5036323;28;20045;-84
2022/03/19 00:27:44;;;;;;;13.57;1.85;;;4.00;99.90;;;;;;5069197;28;20083;-85
2022/03/19 00:30:10;;;;;;;10.65;1.70;;;4.00;99.90;;;;;;5052050;28;20119;-84
2022/03/19 00:32:42;;;;;;;12.93;2.40;;;4.00;99.90;;;;;;5066912;28;20094;-84
2022/03/19 00:35:09;;;;;;;15.27;1.67;;;4.00;99.90;;;;;;5068684;28;20041;-85
2022/03/19 00:37:46;;;;;;;14.88;1.73;;;4.00;99.90;;;;;;5067207;28;20105;-85
2022/03/19 00:40:16;;;;;;;15.38;1.75;;;4.00;99.90;;;;;;5068340;28;20046;-85
2022/03/19 00:42:42;;;;;;;13.00;1.48;;;4.00;99.90;;;;;;5068948;28;20033;-85
2022/03/19 00:45:09;;;;;;;11.25;2.00;;;4.00;99.90;;;;;;5050652;28;20052;-84
2022/03/19 00:47:36;;;;;;;18.45;2.03;;;4.00;99.90;;;;;;5069241;28;20048;-83
2022/03/19 00:50:06;;;;;;;14.10;1.65;;;4.20;99.90;;;;;;5051006;28;20041;-85
2022/03/19 00:52:32;;;;;;;11.38;1.58;;;3.90;99.90;;;;;;5055321;28;20049;-83
2022/03/19 00:54:58;;;;;;;8.70;1.85;;;3.90;99.90;;;;;;5059760;28;20047;-84
2022/03/19 00:57:24;;;;;;;19.27;2.38;;;3.80;99.90;;;;;;5071953;28;20075;-85
2022/03/19 00:59:50;;;;;;;9.35;1.83;;;3.80;99.90;;;;;;5036834;28;20629;-84
2022/03/19 01:02:16;;;;;;;7.70;1.38;;;3.80;99.90;;;;;;5068962;28;20106;-85
2022/03/19 01:04:42;;;;;;;10.38;1.48;;;3.80;99.90;;;;;;5052334;28;20041;-85
2022/03/19 01:07:07;;;;;;;8.30;1.83;;;3.70;99.90;;;;;;5066849;28;20128;-85
2022/03/19 01:09:33;;;;;;;9.82;1.20;;;4.50;99.90;;;;;;5068599;28;20381;-85
2022/03/19 01:11:59;;;;;;;8.00;1.67;;;3.70;99.90;;;;;;5066970;28;20033;-87
2022/03/19 01:14:24;;;;;;;10.40;1.88;;;3.60;99.90;;;;;;5051489;28;20114;-86
2022/03/19 01:16:50;;;;;;;14.70;1.98;;;3.60;99.90;;;;;;5034190;28;20048;-86
2022/03/19 01:19:52;;;;;;;9.85;1.80;;;3.50;99.90;;;;;;5031504;28;20123;-86
2022/03/19 01:22:02;;;;;;;10.02;1.77;;;3.50;99.90;;;;;;5066215;28;20052;-85
2022/03/19 01:24:28;;;;;;;17.13;2.13;;;3.50;99.90;;;;;;5031345;28;20063;-85
2022/03/19 01:26:54;;;;;;;13.85;1.58;;;3.40;99.90;;;;;;5033556;28;20056;-86
2022/03/19 01:29:20;;;;;;;16.65;1.35;;;4.50;99.90;;;;;;5032168;28;20059;-86
2022/03/19 01:31:46;;;;;;;18.38;1.50;;;3.40;99.90;;;;;;5031956;28;20044;-87
2022/03/19 01:34:12;;;;;;;5.63;1.27;;;3.40;99.90;;;;;;5049524;28;20045;-85
2022/03/19 01:36:38;;;;;;;7.95;1.33;;;4.80;99.90;;;;;;5065457;28;20067;-84
2022/03/19 01:39:03;;;;;;;8.82;1.60;;;3.30;99.90;;;;;;5032730;28;20044;-85
2022/03/19 01:41:29;;;;;;;15.85;2.30;;;3.40;99.90;;;;;;5046809;28;20404;-84
2022/03/19 01:43:55;;;;;;;11.57;2.15;;;3.20;99.90;;;;;;5049105;28;20148;-84
2022/03/19 01:46:20;;;;;;;13.35;2.13;;;3.10;99.90;;;;;;5048621;28;20080;-84
2022/03/19 01:48:46;;;;;;;7.45;1.60;;;3.10;99.90;;;;;;5049526;28;20502;-83
2022/03/19 01:51:12;;;;;;;17.67;2.80;;;3.10;99.90;;;;;;5066927;28;20128;-85
2022/03/19 01:53:37;;;;;;;10.55;1.58;;;4.20;99.90;;;;;;5031853;28;20049;-84
2022/03/19 01:56:04;;;;;;;17.00;2.00;;;3.10;99.90;;;;;;5050921;28;20037;-85
2022/03/19 01:58:30;;;;;;;11.50;2.13;;;3.00;99.90;;;;;;5048917;28;20048;-84
2022/03/19 02:00:57;;;;;;;10.63;1.75;;;3.00;99.90;;;;;;5050832;28;20105;-85
2022/03/19 02:03:23;;;;;;;8.05;1.77;;;3.00;99.90;;;;;;5066428;28;20053;-85
2022/03/19 02:05:52;;;;;;;9.05;1.30;;;3.70;99.90;;;;;;5067012;28;20041;-84
2022/03/19 02:08:18;;;;;;;12.13;1.85;;;3.00;99.90;;;;;;5067712;28;20561;-86
2022/03/19 02:10:44;;;;;;;12.32;1.88;;;3.40;99.90;;;;;;5051999;28;20060;-85
2022/03/19 02:13:10;;;;;;;11.95;2.00;;;3.40;99.90;;;;;;5054092;28;20040;-87
2022/03/19 02:15:36;;;;;;;11.82;1.10;;;2.90;99.90;;;;;;5035683;28;20036;-85
2022/03/19 02:18:02;;;;;;;9.50;2.00;;;2.90;99.90;;;;;;5070953;28;20049;-86
2022/03/19 02:20:34;;;;;;;5.13;1.40;;;3.20;99.90;;;;;;5069653;28;20633;-85
2022/03/19 02:25:47;;;;;;;8.68;1.27;;;2.80;99.90;;;;;;5072401;28;20053;-85
2022/03/19 02:28:13;;;;;;;10.35;1.23;;;2.80;99.90;;;;;;5053515;28;20064;-84
2022/03/19 02:30:40;;;;;;;16.33;1.70;;;2.90;99.90;;;;;;5023010;28;20044;-84
2022/03/19 02:33:07;;;;;;;16.10;2.63;;;2.80;99.90;;;;;;5071012;28;20048;-85
2022/03/19 02:35:33;;;;;;;16.83;2.38;;;2.80;99.90;;;;;;5071818;28;20036;-84
2022/03/19 02:37:59;;;;;;;13.88;2.38;;;2.70;99.90;;;;;;5055120;28;20040;-85
2022/03/19 02:40:25;;;;;;;11.57;1.63;;;4.20;99.90;;;;;;5054006;28;20100;-85
2022/03/19 02:42:53;;;;;;;14.35;1.75;;;2.70;99.90;;;;;;5072150;28;20067;-85
2022/03/19 02:45:23;;;;;;;16.02;1.60;;;3.60;99.90;;;;;;5070179;28;20108;-84
2022/03/19 02:47:58;;;;;;;19.33;2.58;;;2.70;99.90;;;;;;5072278;28;20044;-86
2022/03/19 02:50:32;;;;;;;13.48;1.77;;;2.70;99.90;;;;;;5070957;28;20121;-85
2022/03/19 02:52:59;;;;;;;7.57;1.65;;;1.60;99.90;;;;;;5055245;28;20053;-85
2022/03/19 02:55:29;;;;;;;18.67;2.05;;;2.70;99.90;;;;;;5054868;28;20489;-86
2022/03/19 02:57:55;;;;;;;14.40;2.47;;;1.70;99.90;;;;;;5070383;28;20041;-86
2022/03/19 03:00:22;;;;;;;14.75;2.05;;;2.80;99.90;;;;;;5039008;28;20056;-85
2022/03/19 03:02:58;;;;;;;16.60;2.38;;;2.80;99.90;;;;;;5071576;28;20377;-85
2022/03/19 03:05:24;;;;;;;17.95;2.00;;;2.80;99.90;;;;;;5055674;28;20062;-85
2022/03/19 03:07:49;;;;;;;12.55;2.13;;;2.80;99.90;;;;;;5055137;28;20124;-85
2022/03/19 03:10:22;;;;;;;12.82;2.38;;;2.20;99.90;;;;;;5055341;28;20138;-85
2022/03/19 03:12:48;;;;;;;15.23;2.70;;;2.80;99.90;;;;;;5071794;28;20052;-84
2022/03/19 03:15:14;;;;;;;11.52;2.05;;;2.80;99.90;;;;;;5053939;28;20095;-84
2022/03/19 03:17:40;;;;;;;16.73;2.22;;;2.80;99.90;;;;;;5057952;28;20075;-85
2022/03/19 03:20:07;;;;;;;12.45;2.25;;;4.10;99.90;;;;;;5068328;28;20039;-86
2022/03/19 03:22:33;;;;;;;22.70;2.92;;;2.70;99.90;;;;;;5080499;28;20160;-85
2022/03/19 03:24:59;;;;;;;11.80;2.30;;;2.70;99.90;;;;;;5072914;28;20051;-85
2022/03/19 03:27:28;;;;;;;15.23;2.30;;;2.60;99.90;;;;;;5071040;28;20479;-85
2022/03/19 03:29:54;;;;;;;10.70;2.03;;;2.70;99.90;;;;;;5071470;28;20049;-85
2022/03/19 03:32:19;;;;;;;16.80;2.35;;;2.60;99.90;;;;;;5053006;28;20086;-85
2022/03/19 03:34:45;;;;;;;14.60;2.63;;;2.60;99.90;;;;;;5037050;28;20040;-85
2022/03/19 03:37:10;;;;;;;11.02;1.85;;;2.50;99.90;;;;;;5067746;28;20488;-86
2022/03/19 03:39:36;;;;;;;10.40;2.47;;;2.50;99.90;;;;;;5052118;28;20516;-85
2022/03/19 03:42:02;;;;;;;10.40;1.83;;;2.50;99.90;;;;;;5067785;28;20106;-85
2022/03/19 03:44:28;;;;;;;13.30;2.80;;;2.50;99.90;;;;;;5066895;28;20060;-84
2022/03/19 03:46:54;;;;;;;9.70;2.25;;;2.40;99.90;;;;;;5051510;28;20044;-85
2022/03/19 03:49:19;;;;;;;16.00;3.20;;;2.40;99.90;;;;;;5066530;28;20048;-85
2022/03/19 03:51:45;;;;;;;14.00;3.05;;;3.70;99.90;;;;;;5068164;28;20083;-85
2022/03/19 03:54:11;;;;;;;13.80;2.60;;;2.40;99.90;;;;;;5066854;28;20076;-84
2022/03/19 03:56:37;;;;;;;19.35;2.80;;;2.40;99.90;;;;;;5018302;28;20098;-84
2022/03/19 03:59:04;;;;;;;20.40;2.63;;;3.40;99.90;;;;;;5034701;28;20040;-85
2022/03/19 04:01:29;;;;;;;11.93;2.63;;;2.30;99.90;;;;;;5066429;28;20101;-85
2022/03/19 04:03:55;;;;;;;16.77;2.72;;;2.30;99.90;;;;;;5051014;28;20040;-85
2022/03/19 04:06:21;;;;;;;14.23;2.33;;;2.30;99.90;;;;;;5033295;28;20052;-84
2022/03/19 04:08:46;;;;;;;14.90;3.15;;;2.30;99.90;;;;;;5051648;28;20036;-85
2022/03/19 04:11:12;;;;;;;13.00;2.20;;;2.20;99.90;;;;;;5066077;28;20048;-85
2022/03/19 04:13:38;;;;;;;11.05;2.70;;;3.70;99.90;;;;;;5067392;28;20078;-85
2022/03/19 04:16:04;;;;;;;12.45;2.25;;;3.00;99.90;;;;;;5017600;28;20071;-85
2022/03/19 04:18:30;;;;;;;13.77;2.88;;;2.20;99.90;;;;;;5034050;28;20056;-84
2022/03/19 04:20:56;;;;;;;8.43;1.92;;;2.80;99.90;;;;;;5034134;28;20049;-84
2022/03/19 04:23:21;;;;;;;16.10;2.22;;;2.00;99.90;;;;;;5050356;28;20048;-85
2022/03/19 04:25:47;;;;;;;7.53;1.90;;;2.00;99.90;;;;;;5051354;28;20447;-86
2022/03/19 04:28:13;;;;;;;11.77;2.05;;;1.90;99.90;;;;;;5049692;28;20045;-86
2022/03/19 04:30:40;;;;;;;11.48;2.33;;;3.20;99.90;;;;;;5050788;28;20090;-85
2022/03/19 04:33:07;;;;;;;15.43;2.45;;;1.80;99.90;;;;;;5050108;28;20123;-86
2022/03/19 04:38:19;;;;;;;17.83;3.13;;;2.40;99.90;;;;;;5068032;28;20044;-85
2022/03/19 04:40:46;;;;;;;7.60;2.08;;;1.80;99.90;;;;;;5049895;28;20037;-86
2022/03/19 04:43:12;;;;;;;12.35;2.72;;;1.70;99.90;;;;;;5051059;28;20048;-85
2022/03/19 04:45:40;;;;;;;12.35;3.15;;;1.70;99.90;;;;;;5049513;28;20043;-86
2022/03/19 04:48:06;;;;;;;23.30;4.18;;;3.10;99.90;;;;;;5067392;28;20110;-86
2022/03/19 04:50:35;;;;;;;11.38;3.13;;;1.80;99.90;;;;;;5034383;28;20356;-86
2022/03/19 04:53:00;;;;;;;16.88;3.40;;;1.80;99.90;;;;;;5032779;28;20079;-85
2022/03/19 04:55:26;;;;;;;14.25;3.33;;;1.80;99.90;;;;;;5064236;28;20138;-84
2022/03/19 04:57:52;;;;;;;8.10;3.38;;;1.90;99.90;;;;;;5029662;28;20045;-84
2022/03/19 05:00:20;;;;;;;12.35;3.15;;;2.50;99.90;;;;;;5031494;28;20173;-85
2022/03/19 05:02:45;;;;;;;17.15;3.50;;;1.90;99.90;;;;;;5046585;28;20041;-84
2022/03/19 05:05:11;;;;;;;16.02;3.95;;;2.00;99.90;;;;;;5065173;28;20063;-85
2022/03/19 05:07:39;;;;;;;16.95;4.07;;;2.00;99.90;;;;;;5047457;28;20041;-84
2022/03/19 05:12:51;;;;;;;22.55;5.22;;;2.10;99.90;;;;;;5064273;28;20055;-85
2022/03/19 05:15:17;;;;;;;22.67;5.30;;;2.20;99.90;;;;;;5046484;28;20040;-85
2022/03/19 05:17:44;;;;;;;18.42;4.85;;;2.20;99.90;;;;;;5065784;28;20036;-85
2022/03/19 05:20:11;;;;;;;15.65;5.50;;;3.00;99.90;;;;;;5065120;28;20434;-85
2022/03/19 05:22:37;;;;;;;18.35;5.70;;;2.30;99.90;;;;;;5062743;28;20098;-84
2022/03/19 05:25:04;;;;;;;23.48;4.93;;;2.30;99.90;;;;;;5030728;28;20048;-85
2022/03/19 05:27:30;;;;;;;16.45;5.50;;;2.40;99.90;;;;;;5063175;28;20485;-84
2022/03/19 05:29:56;;;;;;;24.30;6.15;;;2.50;99.90;;;;;;5063756;28;20044;-84
2022/03/19 05:32:22;;;;;;;34.92;7.05;;;3.80;99.90;;;;;;5063139;28;20503;-85
2022/03/19 05:34:48;;;;;;;20.17;5.93;;;2.70;99.90;;;;;;5064084;28;20135;-85
2022/03/19 05:37:15;;;;;;;23.85;7.25;;;2.60;99.90;;;;;;5064549;28;20509;-85
2022/03/19 05:39:41;;;;;;;20.40;6.25;;;2.70;99.90;;;;;;5046157;28;20105;-83
2022/03/19 05:42:07;;;;;;;18.55;5.68;;;2.80;99.90;;;;;;5047335;28;20118;-84
2022/03/19 05:44:33;;;;;;;20.73;6.68;;;2.80;99.90;;;;;;5066500;28;20484;-83
2022/03/19 05:46:59;;;;;;;13.25;5.85;;;2.80;99.90;;;;;;5071427;28;20045;-84
2022/03/19 05:49:29;;;;;;;19.83;6.47;;;2.80;99.90;;;;;;5059209;28;20101;-85
2022/03/19 05:51:55;;;;;;;31.90;6.95;;;2.80;99.90;;;;;;5071707;28;20123;-85
2022/03/19 05:54:21;;;;;;;23.08;6.70;;;3.30;99.90;;;;;;5067444;28;20051;-85
2022/03/19 05:56:47;;;;;;;22.52;6.45;;;2.90;99.90;;;;;;5054860;28;20048;-84
2022/03/19 05:59:13;;;;;;;17.40;6.13;;;2.90;99.90;;;;;;5078915;28;20067;-85
2022/03/19 06:01:41;;;;;;;18.90;7.55;;;2.90;99.90;;;;;;5049695;28;20127;-85
2022/03/19 06:04:08;;;;;;;25.45;7.80;;;2.90;99.90;;;;;;5050769;28;20040;-85
2022/03/19 06:06:34;;;;;;;17.95;7.60;;;3.00;99.90;;;;;;5049452;28;20129;-86
2022/03/19 06:09:00;;;;;;;17.40;7.32;;;3.10;99.90;;;;;;5068813;28;20032;-85
2022/03/19 06:11:26;;;;;;;15.88;6.35;;;3.00;99.90;;;;;;5068246;28;20561;-85
2022/03/19 06:13:51;;;;;;;22.15;7.00;;;4.50;99.90;;;;;;5049535;28;20079;-84
2022/03/19 06:16:18;;;;;;;18.70;7.00;;;3.20;99.90;;;;;;5067432;28;20080;-84
2022/03/19 06:18:46;;;;;;;21.75;6.93;;;3.20;99.90;;;;;;5032948;28;20110;-82
2022/03/19 06:21:12;;;;;;;15.10;5.65;;;3.20;99.90;;;;;;5050803;28;20424;-83
2022/03/19 06:23:38;;;;;;;18.17;6.20;;;3.30;99.90;;;;;;5065981;28;20091;-82
2022/03/19 06:26:03;;;;;;;19.05;6.18;;;3.30;99.90;;;;;;5068692;28;20508;-82
2022/03/19 06:28:29;;;;;;;24.45;6.20;;;4.70;99.90;;;;;;5066181;28;20049;-82
2022/03/19 06:30:55;;;;;;;17.90;5.35;;;4.50;99.90;;;;;;5066523;28;20079;-82
2022/03/19 06:33:21;;;;;;;28.88;5.95;;;3.40;99.90;;;;;;5050401;28;20457;-85
2022/03/19 06:38:31;;;;;;;10.88;5.70;;;3.50;99.90;;;;;;5067625;28;20391;-87
2022/03/19 06:41:00;;;;;;;16.65;5.82;;;3.50;99.90;;;;;;5048935;28;20048;-85
2022/03/19 06:43:27;;;;;;;16.08;5.82;;;3.60;99.90;;;;;;5066230;28;20094;-86
2022/03/19 06:45:58;;;;;;;14.32;4.80;;;3.60;99.90;;;;;;5049984;28;20052;-81
2022/03/19 06:48:24;;;;;;;18.13;5.68;;;3.70;99.90;;;;;;5049223;28;20119;-82
2022/03/19 06:50:50;;;;;;;15.20;5.80;;;4.60;99.90;;;;;;5068605;28;20040;-83
2022/03/19 06:53:16;;;;;;;17.63;5.05;;;4.70;99.90;;;;;;5066962;28;20395;-82
2022/03/19 06:55:42;;;;;;;10.88;4.43;;;4.00;99.90;;;;;;5050631;28;20044;-81
2022/03/19 06:58:08;;;;;;;13.15;4.90;;;4.50;99.90;;;;;;5067634;28;20048;-82
2022/03/19 07:00:35;;;;;;;21.33;4.40;;;4.20;99.90;;;;;;5066341;28;20224;-83
2022/03/19 07:03:01;;;;;;;12.48;4.75;;;4.30;99.90;;;;;;5066541;28;20040;-82
2022/03/19 07:05:28;;;;;;;11.48;4.45;;;4.40;99.90;;;;;;5048651;28;20182;-81
2022/03/19 07:07:56;;;;;;;17.67;5.00;;;4.50;99.90;;;;;;5066314;28;20102;-81
2022/03/19 07:10:22;;;;;;;12.88;4.57;;;5.80;99.90;;;;;;5065480;28;20048;-79
2022/03/19 07:12:54;;;;;;;12.25;3.88;;;4.70;99.90;;;;;;5068837;28;20090;-81
2022/03/19 07:15:27;;;;;;;16.17;5.13;;;4.80;99.90;;;;;;5050100;28;20056;-81
2022/03/19 07:17:53;;;;;;;15.55;4.97;;;5.00;99.90;;;;;;5067071;28;20049;-80
2022/03/19 07:20:19;;;;;;;16.27;4.25;;;5.00;99.90;;;;;;5067973;28;20051;-79
2022/03/19 07:22:52;;;;;;;12.88;5.05;;;5.20;99.90;;;;;;5066622;28;20049;-81
2022/03/19 07:25:19;;;;;;;;;;;5.30;99.90;;;;;;5049956;28;20053;-80
2022/03/19 07:27:45;;;;;;;10.68;4.75;;;5.40;99.90;;;;;;5065993;28;19924;-79
2022/03/19 07:30:11;;;;;;;10.68;4.43;;;6.20;99.90;;;;;;5066080;28;20396;-82
2022/03/19 07:32:38;;;;;;;16.35;3.95;;;5.60;99.90;;;;;;5067345;28;20055;-81
2022/03/19 07:35:06;;;;;;;15.98;4.65;;;5.70;99.90;;;;;;5064820;28;20087;-82
2022/03/19 07:37:35;;;;;;;10.30;3.67;;;5.80;99.90;;;;;;5066066;28;20100;-81
2022/03/19 07:40:01;;;;;;;18.80;4.40;;;5.90;99.90;;;;;;5065250;28;20087;-79
2022/03/19 07:42:27;;;;;;;11.18;4.38;;;6.00;99.90;;;;;;5067595;28;20370;-80
2022/03/19 07:44:53;;;;;;;15.35;3.97;;;6.10;99.90;;;;;;5064730;28;20048;-81
2022/03/19 07:47:19;;;;;;;12.60;4.03;;;6.20;99.90;;;;;;5065375;28;20048;-81
2022/03/19 07:49:45;;;;;;;8.68;3.28;;;7.50;99.90;;;;;;5048798;28;20048;-81
2022/03/19 07:52:11;;;;;;;11.38;3.83;;;6.50;99.90;;;;;;5065327;28;20049;-80
2022/03/19 07:54:37;;;;;;;13.63;3.20;;;6.60;99.90;;;;;;5067093;28;20591;-83
2022/03/19 07:57:04;;;;;;;12.73;3.25;;;8.00;99.90;;;;;;5064527;28;20128;-82
2022/03/19 07:59:30;;;;;;;8.55;3.28;;;6.80;99.90;;;;;;5048867;28;20075;-82
2022/03/19 08:01:56;;;;;;;16.30;4.70;;;7.00;99.90;;;;;;5066514;28;20522;-82
2022/03/19 08:04:23;;;;;;;13.95;3.50;;;7.10;99.90;;;;;;5066220;28;20448;-83
2022/03/19 08:06:53;;;;;;;12.20;3.83;;;7.20;99.90;;;;;;5065789;28;20068;-83
2022/03/19 08:09:19;;;;;;;16.05;3.40;;;7.30;99.90;;;;;;5067045;28;20047;-83
2022/03/19 08:11:45;;;;;;;10.95;2.72;;;7.40;99.90;;;;;;5066592;28;20049;-81
2022/03/19 08:14:14;;;;;;;13.48;3.47;;;8.80;99.90;;;;;;5066014;28;20082;-82
2022/03/19 08:16:43;;;;;;;13.25;3.33;;;7.60;99.90;;;;;;5069721;28;20584;-82
2022/03/19 08:19:11;;;;;;;10.43;3.08;;;8.50;99.90;;;;;;5065765;28;20511;-81
2022/03/19 08:21:38;;;;;;;10.93;3.42;;;7.70;99.90;;;;;;5066000;28;20051;-81
2022/03/19 08:24:05;;;;;;;15.90;3.22;;;7.80;99.90;;;;;;5049361;28;20274;-81
2022/03/19 08:26:31;;;;;;;13.85;3.50;;;7.90;99.90;;;;;;5031931;28;20041;-81
2022/03/19 08:28:57;;;;;;;11.80;3.42;;;8.00;99.90;;;;;;5066977;28;20056;-81
2022/03/19 08:31:23;;;;;;;14.82;2.47;;;8.80;99.90;;;;;;5065481;28;20051;-82
2022/03/19 08:33:49;;;;;;;13.93;2.88;;;8.20;99.90;;;;;;5067222;28;20044;-82
2022/03/19 08:36:14;;;;;;;11.45;2.83;;;8.30;99.90;;;;;;5066202;28;20132;-82
2022/03/19 08:41:25;;;;;;;9.63;2.53;;;8.50;99.90;;;;;;5066484;28;20064;-82
2022/03/19 08:43:50;;;;;;;8.57;2.80;;;8.70;99.90;;;;;;5049431;28;20267;-82
2022/03/19 08:46:16;;;;;;;13.48;3.20;;;8.70;99.90;;;;;;5067867;28;20041;-82
2022/03/19 08:48:42;;;;;;;14.98;2.80;;;8.90;99.90;;;;;;5065172;28;20082;-83
2022/03/19 08:53:52;;;;;;;10.30;2.22;;;9.10;99.90;;;;;;5068317;28;20044;-80
2022/03/19 08:56:18;;;;;;;12.82;2.60;;;9.30;99.90;;;;;;5067593;28;20047;-80
2022/03/19 08:58:44;;;;;;;10.60;2.10;;;9.70;99.90;;;;;;5070004;28;20515;-83
2022/03/19 09:01:10;;;;;;;11.13;1.92;;;9.50;99.90;;;;;;5067303;28;20044;-80
2022/03/19 09:03:35;;;;;;;10.25;2.30;;;9.60;99.90;;;;;;5067339;28;20480;-81
2022/03/19 09:06:01;;;;;;;14.23;2.45;;;9.90;99.90;;;;;;5049604;28;20068;-79
2022/03/19 09:08:27;;;;;;;6.95;1.95;;;10.10;99.90;;;;;;5049669;28;20393;-80
2022/03/19 09:10:53;;;;;;;9.10;1.90;;;10.30;99.90;;;;;;5066359;28;20045;-81
2022/03/19 09:13:19;;;;;;;14.32;2.08;;;10.40;99.90;;;;;;5065140;28;20080;-78
2022/03/19 09:15:45;;;;;;;11.02;2.10;;;10.50;99.90;;;;;;5048743;28;20048;-78
2022/03/19 09:18:11;;;;;;;9.93;2.08;;;10.60;99.90;;;;;;5047421;28;20041;-78
2022/03/19 09:20:37;;;;;;;10.40;1.77;;;10.60;99.90;;;;;;5069201;28;20131;-76
2022/03/19 09:23:03;;;;;;;8.68;2.05;;;10.70;99.90;;;;;;5069196;28;20084;-78
2022/03/19 09:25:29;;;;;;;7.38;2.00;;;10.70;99.90;;;;;;5070830;28;20173;-78
2022/03/19 09:27:55;;;;;;;8.02;1.95;;;10.70;99.90;;;;;;5069132;28;20083;-80
2022/03/19 09:30:21;;;;;;;8.10;1.95;;;10.70;99.90;;;;;;5068966;28;20045;-76
2022/03/19 09:32:46;;;;;;;12.70;1.95;;;10.80;99.90;;;;;;5052903;28;20391;-77
2022/03/19 09:35:12;;;;;;;9.27;2.53;;;10.90;99.90;;;;;;5068071;28;20494;-78
2022/03/19 09:37:38;;;;;;;5.35;1.70;;;10.90;99.90;;;;;;5070351;28;20404;-78
2022/03/19 09:40:05;;;;;;;8.10;1.73;;;10.90;99.90;;;;;;5068113;28;20083;-78
2022/03/19 09:42:34;;;;;;;8.52;1.95;;;11.00;99.90;;;;;;5069057;28;20088;-77
2022/03/19 09:45:00;;;;;;;8.20;1.80;;;11.10;99.90;;;;;;5069844;28;20064;-78
2022/03/19 09:47:29;;;;;;;8.98;1.95;;;11.20;99.90;;;;;;5067919;28;20046;-79
2022/03/19 09:49:54;;;;;;;8.88;1.92;;;11.40;99.90;;;;;;5052102;28;20040;-77
2022/03/19 09:52:21;;;;;;;10.35;2.42;;;11.50;99.30;;;;;;5067762;28;20380;-78
2022/03/19 09:54:47;;;;;;;8.60;1.90;;;12.30;99.20;;;;;;5052174;28;20036;-80
2022/03/19 09:57:13;;;;;;;7.85;1.98;;;11.70;98.40;;;;;;5068974;28;20047;-78
2022/03/19 09:59:39;;;;;;;13.82;2.90;;;11.90;97.70;;;;;;5070026;28;20174;-77
2022/03/19 10:02:10;;;;;;;8.82;1.95;;;11.90;96.80;;;;;;5035022;28;20091;-79
2022/03/19 10:04:40;;;;;;;8.90;2.17;;;12.10;95.00;;;;;;5067333;28;20224;-79
2022/03/19 10:09:50;;;;;;;10.30;2.47;;;12.20;95.30;;;;;;5058551;28;20043;-81
2022/03/19 10:12:30;;;;;;;9.95;2.53;;;12.30;94.70;;;;;;5056787;28;20048;-82
2022/03/19 10:14:57;;;;;;;8.20;2.08;;;12.30;90.60;;;;;;5051760;28;20048;-81
2022/03/19 10:17:27;;;;;;;11.05;2.20;;;13.70;93.60;;;;;;5069077;28;20044;-77
2022/03/19 10:19:54;;;;;;;11.48;1.95;;;12.40;92.20;;;;;;5068483;28;20044;-76
2022/03/19 10:22:28;;;;;;;11.90;2.35;;;12.50;93.30;;;;;;5067125;28;20105;-77
2022/03/19 10:24:59;;;;;;;13.30;2.05;;;12.50;90.10;;;;;;5068600;28;20161;-78
2022/03/19 10:27:25;;;;;;;19.23;2.15;;;12.60;90.70;;;;;;5068373;28;20093;-77
2022/03/19 10:30:04;;;;;;;10.63;3.33;;;12.50;91.60;;;;;;5068569;28;20057;-76
2022/03/19 10:32:30;;;;;;;9.00;2.65;;;12.50;89.40;;;;;;5070718;28;20141;-76
2022/03/19 10:34:55;;;;;;;18.23;2.00;;;12.50;91.50;;;;;;5068902;28;20044;-76
2022/03/19 10:37:41;;;;;;;11.43;1.77;;;12.60;90.20;;;;;;5050101;28;20052;-76
2022/03/19 10:40:08;;;;;;;10.57;1.48;;;12.60;78.40;;;;;;5067340;28;20153;-75
2022/03/19 10:42:40;;;;;;;6.97;1.45;;;12.60;90.10;;;;;;5067390;28;20604;-76
2022/03/19 10:45:09;;;;;;;7.13;1.40;;;12.60;86.50;;;;;;5068111;28;20052;-73
2022/03/19 10:47:46;;;;;;;5.60;1.50;;;12.50;87.50;;;;;;5064963;28;20500;-75
2022/03/19 10:50:19;;;;;;;7.35;1.88;;;12.50;79.90;;;;;;5067660;28;20530;-75
2022/03/19 10:52:46;;;;;;;4.90;0.77;;;12.50;82.60;;;;;;5066404;28;20045;-74
2022/03/19 10:55:12;;;;;;;8.30;1.60;;;12.50;81.40;;;;;;5065973;28;20041;-75
2022/03/19 10:57:38;;;;;;;3.65;0.75;;;12.60;83.20;;;;;;5065908;28;20051;-76
2022/03/19 11:00:05;;;;;;;5.28;0.98;;;12.60;80.00;;;;;;5066457;28;20055;-76
2022/03/19 11:02:31;;;;;;;7.25;1.17;;;12.70;76.50;;;;;;5067392;28;20052;-76
2022/03/19 11:05:01;;;;;;;11.13;1.65;;;12.80;73.20;;;;;;5064738;28;20044;-75
2022/03/19 11:07:32;;;;;;;3.88;1.00;;;12.80;68.80;;;;;;5066044;28;20582;-76
2022/03/19 11:09:59;;;;;;;4.93;1.02;;;12.90;68.60;;;;;;5066428;28;20037;-75
2022/03/19 11:12:28;;;;;;;6.22;1.63;;;13.10;70.10;;;;;;5066751;28;20543;-76
2022/03/19 11:14:57;;;;;;;5.43;1.65;;;13.00;69.80;;;;;;5048767;28;20037;-75
2022/03/19 11:17:30;;;;;;;6.05;1.15;;;13.10;69.70;;;;;;5065832;28;20096;-75
2022/03/19 11:20:02;;;;;;;5.15;1.60;;;13.20;67.20;;;;;;5067297;28;20082;-75
2022/03/19 11:22:39;;;;;;;6.00;2.25;;;13.30;66.20;;;;;;5064599;28;20051;-75
2022/03/19 11:25:20;;;;;;;6.03;1.00;;;13.40;65.30;;;;;;5027733;28;1136973;-76
2022/03/19 11:27:51;;;;;;;4.75;1.02;;;13.40;66.30;;;;;;5067820;28;20143;-75
2022/03/19 11:30:21;;;;;;;5.38;1.05;;;13.50;65.10;;;;;;5065393;28;20053;-76
2022/03/19 11:33:07;;;;;;;4.10;1.10;;;13.60;64.50;;;;;;5067965;28;20118;-75
2022/03/19 11:35:38;;;;;;;4.25;0.88;;;13.70;60.70;;;;;;5067464;28;20044;-76
2022/03/19 11:38:13;;;;;;;3.47;0.75;;;13.70;62.80;;;;;;5050775;28;20135;-78
2022/03/19 11:40:47;;;;;;;4.78;1.20;;;13.80;62.20;;;;;;5051044;28;20068;-78
2022/03/19 11:43:39;;;;;;;5.43;1.02;;;13.80;61.60;;;;;;5066029;28;20488;-78
2022/03/19 11:46:09;;;;;;;3.03;0.65;;;13.80;56.30;;;;;;5067937;28;20060;-77
2022/03/19 11:48:35;;;;;;;5.70;1.05;;;13.80;60.30;;;;;;5065784;28;20076;-78
2022/03/19 11:51:25;;;;;;;2.35;0.90;;;13.80;59.60;;;;;;5068228;28;20050;-77
2022/03/19 11:54:16;;;;;;;3.55;0.60;;;13.90;57.20;;;;;;5067645;28;20048;-78
2022/03/19 11:56:42;;;;;;;4.18;0.90;;;13.80;55.30;;;;;;5065757;28;20508;-79
2022/03/19 11:59:18;;;;;;;3.17;0.73;;;13.90;57.80;;;;;;5067004;28;20047;-78
2022/03/19 12:02:00;;;;;;;3.92;0.93;;;13.90;57.70;;;;;;5066935;28;20052;-78
2022/03/19 12:04:45;;;;;;;3.20;0.63;;;14.00;58.30;;;;;;5069910;28;20507;-78
2022/03/19 12:07:12;;;;;;;1.95;0.50;;;14.20;56.30;;;;;;5072501;28;20377;-79
2022/03/19 12:09:40;;;;;;;3.20;0.90;;;14.20;57.70;;;;;;5067970;28;20048;-77
2022/03/19 12:12:15;;;;;;;6.03;0.85;;;14.20;56.90;;;;;;5067746;28;20099;-77
2022/03/19 12:14:44;;;;;;;2.88;0.57;;;15.10;57.00;;;;;;5065728;28;20049;-77
2022/03/19 12:17:37;;;;;;;3.92;0.60;;;14.50;57.50;;;;;;5064925;28;20059;-78
2022/03/19 12:20:07;;;;;;;2.92;0.70;;;14.60;53.70;;;;;;5064742;28;20055;-79
2022/03/19 12:22:39;;;;;;;1.48;0.50;;;14.70;56.40;;;;;;5065112;28;20044;-79
2022/03/19 12:25:10;;;;;;;4.85;0.60;;;14.60;56.30;;;;;;5066584;28;20079;-79
2022/03/19 12:27:37;;;;;;;2.58;0.50;;;14.80;53.60;;;;;;5065209;28;20147;-78
2022/03/19 12:30:05;;;;;;;1.58;0.47;;;14.60;55.20;;;;;;5064290;28;20060;-77
2022/03/19 12:32:44;;;;;;;2.20;0.45;;;14.70;55.40;;;;;;5066939;28;20041;-77
2022/03/19 12:35:10;;;;;;;3.03;0.63;;;14.70;54.30;;;;;;5064680;28;20051;-77
2022/03/19 12:37:50;;;;;;;1.60;0.40;;;14.80;55.50;;;;;;5066823;28;20044;-78
2022/03/19 12:40:21;;;;;;;7.13;1.00;;;14.90;55.00;;;;;;5066689;28;20036;-77
2022/03/19 12:42:55;;;;;;;2.42;0.70;;;14.90;54.60;;;;;;5063799;28;20051;-77
2022/03/19 12:45:35;;;;;;;4.80;0.60;;;15.00;55.50;;;;;;5066823;28;20049;-77
2022/03/19 12:48:06;;;;;;;3.50;0.70;;;15.00;52.00;;;;;;5066428;28;20441;-76
2022/03/19 12:50:32;;;;;;;5.55;0.60;;;14.90;52.30;;;;;;5066255;28;20044;-77
2022/03/19 12:52:58;;;;;;;3.78;0.80;;;14.90;52.90;;;;;;5064351;28;20040;-77
2022/03/19 12:55:24;;;;;;;1.45;0.38;;;14.90;52.60;;;;;;5064797;28;20037;-78
2022/03/19 12:58:03;;;;;;;2.13;0.60;;;14.90;51.90;;;;;;5067476;28;20438;-77
2022/03/19 13:00:29;;;;;;;5.78;0.68;;;14.90;50.60;;;;;;5064312;28;20056;-76
2022/03/19 13:02:55;;;;;;;3.58;0.80;;;14.90;51.30;;;;;;5066672;28;20500;-77
2022/03/19 13:05:22;;;;;;;6.82;0.70;;;14.90;50.70;;;;;;5064367;28;20455;-77
2022/03/19 13:08:02;;;;;;;5.40;1.15;;;14.90;51.00;;;;;;5065275;28;20040;-76
2022/03/19 13:10:28;;;;;;;3.38;0.57;;;14.90;49.60;;;;;;5067164;28;20093;-80